Time;durP1;ratioP1;P1;durP2;ratioP2;P2;SDS_P1;SDS_P2;PMS_P1;PMS_P2;Temp;Humidity;BMP_temperature;BMP_pressure;BME280_temperature;BME280_humidity;BME280_pressure;Samples;Min_cycle;Max_cycle;Signal;HPM_P1;HPM_P2
2021/07/04 00:00:57;;;;;;;0.30;0.30;;;;;;;;;;4992551;28;20419;-63
2021/07/04 00:03:23;;;;;;;0.30;0.30;;;;;;;;;;4992658;28;20418;-62
2021/07/04 00:05:50;;;;;;;0.20;0.20;;;;;;;;;;4992769;28;20380;-63
2021/07/04 00:08:23;;;;;;;0.20;0.20;;;;;;;;;;4992245;28;20884;-63
2021/07/04 00:11:00;;;;;;;0.20;0.20;;;;;;;;;;4992426;28;20491;-63
2021/07/04 00:13:27;;;;;;;0.20;0.20;;;;;;;;;;4992385;28;20902;-63
2021/07/04 00:15:53;;;;;;;0.30;0.30;;;;;;;;;;4992622;28;20405;-63
2021/07/04 00:18:21;;;;;;;0.20;0.20;;;;;;;;;;4992189;28;20481;-63
2021/07/04 00:20:49;;;;;;;0.20;0.20;;;;;;;;;;4992217;28;20904;-63
2021/07/04 00:23:15;;;;;;;0.20;0.20;;;;;;;;;;4992236;28;20864;-63
2021/07/04 00:25:42;;;;;;;0.20;0.20;;;;;;;;;;4992330;28;20424;-63
2021/07/04 00:28:08;;;;;;;0.20;0.20;;;;;;;;;;4992321;28;20446;-62
2021/07/04 00:30:34;;;;;;;0.20;0.20;;;;;;;;;;4992427;28;20413;-61
2021/07/04 00:33:00;;;;;;;0.20;0.20;;;;;;;;;;4993596;28;20406;-62
2021/07/04 00:35:27;;;;;;;0.20;0.20;;;;;;;;;;4996878;28;20372;-62
2021/07/04 00:37:53;;;;;;;0.20;0.20;;;;;;;;;;4996136;28;20830;-61
2021/07/04 00:40:19;;;;;;;0.20;0.20;;;;;;;;;;4996022;28;20422;-62
2021/07/04 00:42:46;;;;;;;0.20;0.20;;;;;;;;;;4996220;28;20421;-62
2021/07/04 00:45:14;;;;;;;0.20;0.20;;;;;;;;;;4996146;28;20417;-62
2021/07/04 00:47:40;;;;;;;0.20;0.20;;;;;;;;;;4996057;28;20449;-61
2021/07/04 00:50:06;;;;;;;0.20;0.20;;;;;;;;;;4995922;28;20423;-61
2021/07/04 00:52:32;;;;;;;0.20;0.20;;;;;;;;;;4995921;28;20409;-62
2021/07/04 00:54:58;;;;;;;0.20;0.20;;;;;;;;;;4996046;28;20777;-62
2021/07/04 00:57:25;;;;;;;0.20;0.20;;;;;;;;;;4995747;28;20433;-61
2021/07/04 00:59:51;;;;;;;0.30;0.30;;;;;;;;;;4994294;28;20851;-61
2021/07/04 01:02:16;;;;;;;0.20;0.20;;;;;;;;;;4995839;28;20449;-61
2021/07/04 01:04:42;;;;;;;0.20;0.20;;;;;;;;;;4995495;28;20420;-62
2021/07/04 01:07:09;;;;;;;0.30;0.30;;;;;;;;;;4994153;28;20468;-62
2021/07/04 01:09:35;;;;;;;0.20;0.20;;;;;;;;;;4994138;28;20426;-62
2021/07/04 01:12:01;;;;;;;0.20;0.20;;;;;;;;;;4996041;28;20421;-62
2021/07/04 01:14:27;;;;;;;0.30;0.30;;;;;;;;;;4995565;28;20412;-61
2021/07/04 01:16:53;;;;;;;0.20;0.20;;;;;;;;;;4995267;28;20545;-62
2021/07/04 01:19:22;;;;;;;0.30;0.30;;;;;;;;;;4995142;28;20455;-62
2021/07/04 01:21:48;;;;;;;0.30;0.30;;;;;;;;;;4995513;28;20421;-62
2021/07/04 01:24:15;;;;;;;0.30;0.30;;;;;;;;;;4994113;28;20265;-62
2021/07/04 01:26:41;;;;;;;0.20;0.20;;;;;;;;;;4994998;28;20583;-62
2021/07/04 01:29:07;;;;;;;0.20;0.20;;;;;;;;;;4995029;28;20405;-61
2021/07/04 01:31:33;;;;;;;0.20;0.20;;;;;;;;;;4995155;28;20171;-61
2021/07/04 01:33:59;;;;;;;0.30;0.30;;;;;;;;;;4995131;28;20920;-62
2021/07/04 01:36:25;;;;;;;0.20;0.20;;;;;;;;;;4995024;28;20429;-62
2021/07/04 01:38:51;;;;;;;0.20;0.20;;;;;;;;;;4994830;28;20418;-62
2021/07/04 01:41:17;;;;;;;0.30;0.30;;;;;;;;;;4997613;28;20844;-63
2021/07/04 01:43:43;;;;;;;0.30;0.30;;;;;;;;;;4994677;28;20444;-63
2021/07/04 01:46:09;;;;;;;0.30;0.30;;;;;;;;;;4995141;28;20409;-63
2021/07/04 01:48:35;;;;;;;0.20;0.20;;;;;;;;;;4994870;28;20476;-63
2021/07/04 01:51:01;;;;;;;0.20;0.20;;;;;;;;;;4994877;28;20427;-62
2021/07/04 01:53:27;;;;;;;0.30;0.30;;;;;;;;;;4995818;28;20873;-62
2021/07/04 01:55:53;;;;;;;0.30;0.30;;;;;;;;;;4995570;28;20416;-62
2021/07/04 01:58:19;;;;;;;0.20;0.20;;;;;;;;;;4995262;28;20425;-62
2021/07/04 02:00:46;;;;;;;0.20;0.20;;;;;;;;;;4995199;28;21005;-62
2021/07/04 02:03:12;;;;;;;0.20;0.20;;;;;;;;;;4993782;28;20245;-62
2021/07/04 02:05:39;;;;;;;0.20;0.20;;;;;;;;;;4995280;28;20902;-62
2021/07/04 02:08:05;;;;;;;0.23;0.23;;;;;;;;;;4994852;28;20457;-64
2021/07/04 02:10:33;;;;;;;0.20;0.20;;;;;;;;;;4994234;28;20417;-62
2021/07/04 02:12:59;;;;;;;0.27;0.27;;;;;;;;;;4994331;28;20401;-62
2021/07/04 02:15:29;;;;;;;0.20;0.20;;;;;;;;;;4994626;28;20414;-62
2021/07/04 02:17:55;;;;;;;0.20;0.20;;;;;;;;;;4994419;28;20969;-62
2021/07/04 02:20:56;;;;;;;0.30;0.30;;;;;;;;;;4994020;28;20471;-63
2021/07/04 02:23:22;;;;;;;0.30;0.30;;;;;;;;;;4972472;28;20465;-63
2021/07/04 02:25:49;;;;;;;0.20;0.20;;;;;;;;;;4989843;28;20424;-62
2021/07/04 02:28:17;;;;;;;0.20;0.20;;;;;;;;;;4993985;28;20519;-62
2021/07/04 02:30:43;;;;;;;0.20;0.20;;;;;;;;;;4993975;28;20417;-63
2021/07/04 02:33:10;;;;;;;0.20;0.20;;;;;;;;;;4993941;28;20405;-63
2021/07/04 02:35:38;;;;;;;0.30;0.30;;;;;;;;;;4992563;28;20424;-62
2021/07/04 02:38:04;;;;;;;0.20;0.20;;;;;;;;;;4993803;28;20418;-63
2021/07/04 02:40:30;;;;;;;0.20;0.20;;;;;;;;;;4993719;28;20909;-63
2021/07/04 02:42:57;;;;;;;0.20;0.20;;;;;;;;;;4993678;28;20447;-63
2021/07/04 02:45:23;;;;;;;0.20;0.20;;;;;;;;;;4993888;28;20425;-63
2021/07/04 02:47:49;;;;;;;0.20;0.20;;;;;;;;;;4993734;28;20827;-62
2021/07/04 02:50:20;;;;;;;0.20;0.20;;;;;;;;;;4993417;28;20434;-62
2021/07/04 02:52:47;;;;;;;0.30;0.30;;;;;;;;;;4993917;28;20413;-62
2021/07/04 02:55:13;;;;;;;0.30;0.30;;;;;;;;;;4993165;28;20406;-63
2021/07/04 02:57:39;;;;;;;0.20;0.20;;;;;;;;;;4993541;28;20858;-63
2021/07/04 03:00:06;;;;;;;0.30;0.30;;;;;;;;;;4993303;28;20410;-63
2021/07/04 03:02:32;;;;;;;0.20;0.20;;;;;;;;;;4993384;28;20760;-63
2021/07/04 03:04:58;;;;;;;0.20;0.20;;;;;;;;;;4993359;28;20927;-62
2021/07/04 03:07:25;;;;;;;0.30;0.30;;;;;;;;;;4993201;28;20513;-62
2021/07/04 03:09:51;;;;;;;0.20;0.20;;;;;;;;;;4993169;28;20384;-62
2021/07/04 03:12:17;;;;;;;0.30;0.30;;;;;;;;;;4993292;28;20484;-63
2021/07/04 03:14:43;;;;;;;0.30;0.30;;;;;;;;;;4993289;28;21068;-63
2021/07/04 03:17:09;;;;;;;0.30;0.30;;;;;;;;;;4992908;28;20453;-63
2021/07/04 03:19:35;;;;;;;0.23;0.23;;;;;;;;;;4992919;28;20418;-63
2021/07/04 03:22:01;;;;;;;0.30;0.30;;;;;;;;;;4993173;28;20417;-63
2021/07/04 03:24:27;;;;;;;0.20;0.20;;;;;;;;;;4993038;28;20448;-62
2021/07/04 03:26:53;;;;;;;0.30;0.30;;;;;;;;;;4992861;28;20464;-63
2021/07/04 03:29:19;;;;;;;0.30;0.30;;;;;;;;;;4992709;28;20417;-63
2021/07/04 03:31:46;;;;;;;0.20;0.20;;;;;;;;;;4992902;28;20787;-63
2021/07/04 03:34:12;;;;;;;0.20;0.20;;;;;;;;;;4992880;28;20480;-63
2021/07/04 03:36:38;;;;;;;0.20;0.20;;;;;;;;;;4992794;28;20955;-63
2021/07/04 03:39:04;;;;;;;0.20;0.20;;;;;;;;;;4992674;28;20468;-63
2021/07/04 03:41:30;;;;;;;0.20;0.20;;;;;;;;;;4992781;28;20421;-63
2021/07/04 03:43:59;;;;;;;0.20;0.20;;;;;;;;;;4992705;28;20409;-63
2021/07/04 03:46:25;;;;;;;0.30;0.30;;;;;;;;;;4992512;28;20437;-63
2021/07/04 03:48:51;;;;;;;0.30;0.30;;;;;;;;;;4992416;28;20421;-63
2021/07/04 03:51:17;;;;;;;0.20;0.20;;;;;;;;;;4992674;28;20417;-63
2021/07/04 03:53:43;;;;;;;0.20;0.20;;;;;;;;;;4992690;28;20402;-63
2021/07/04 03:56:09;;;;;;;0.30;0.30;;;;;;;;;;4992530;28;20383;-63
2021/07/04 03:58:36;;;;;;;0.20;0.20;;;;;;;;;;4992228;28;20565;-62
2021/07/04 04:01:02;;;;;;;0.20;0.20;;;;;;;;;;4992437;28;20416;-63
2021/07/04 04:03:28;;;;;;;0.20;0.20;;;;;;;;;;4992607;28;20408;-63
2021/07/04 04:05:57;;;;;;;0.20;0.20;;;;;;;;;;4992442;28;20886;-62
2021/07/04 04:08:23;;;;;;;0.20;0.20;;;;;;;;;;4992327;28;20473;-63
2021/07/04 04:10:49;;;;;;;0.20;0.20;;;;;;;;;;4992421;28;20417;-63
2021/07/04 04:13:15;;;;;;;0.30;0.30;;;;;;;;;;4992359;28;20400;-63
2021/07/04 04:15:41;;;;;;;0.20;0.20;;;;;;;;;;4992585;28;20792;-63
2021/07/04 04:18:08;;;;;;;0.20;0.20;;;;;;;;;;5042438;23;20506;-64
2021/07/04 04:20:34;;;;;;;0.20;0.20;;;;;;;;;;5030986;28;20428;-63
2021/07/04 04:23:00;;;;;;;0.30;0.30;;;;;;;;;;5031521;28;20783;-64
2021/07/04 04:25:26;;;;;;;0.20;0.20;;;;;;;;;;5031557;28;20410;-63
2021/07/04 04:27:52;;;;;;;0.20;0.20;;;;;;;;;;5031336;28;20466;-64
2021/07/04 04:30:18;;;;;;;0.30;0.30;;;;;;;;;;5031020;28;20905;-64
2021/07/04 04:32:45;;;;;;;0.30;0.30;;;;;;;;;;5031476;28;20394;-65
2021/07/04 04:35:11;;;;;;;0.20;0.20;;;;;;;;;;5031571;28;20381;-64
2021/07/04 04:37:38;;;;;;;0.20;0.20;;;;;;;;;;5031425;28;20409;-63
2021/07/04 04:40:05;;;;;;;0.30;0.30;;;;;;;;;;5031313;28;20429;-66
2021/07/04 04:42:31;;;;;;;0.20;0.20;;;;;;;;;;5031447;28;20415;-64
2021/07/04 04:44:57;;;;;;;0.30;0.30;;;;;;;;;;5031319;28;20404;-64
2021/07/04 04:47:23;;;;;;;0.30;0.30;;;;;;;;;;5031219;28;20455;-65
2021/07/04 04:49:49;;;;;;;0.20;0.20;;;;;;;;;;5031136;28;20415;-64
2021/07/04 04:52:15;;;;;;;0.20;0.20;;;;;;;;;;5031343;28;20920;-63
2021/07/04 04:54:41;;;;;;;0.20;0.20;;;;;;;;;;5031295;28;20894;-65
2021/07/04 04:57:07;;;;;;;0.20;0.20;;;;;;;;;;5031211;28;20398;-62
2021/07/04 04:59:37;;;;;;;0.30;0.30;;;;;;;;;;5030980;28;20440;-64
2021/07/04 05:02:03;;;;;;;0.20;0.20;;;;;;;;;;5031182;28;20421;-64
2021/07/04 05:04:29;;;;;;;0.20;0.20;;;;;;;;;;5031260;28;20382;-64
2021/07/04 05:06:55;;;;;;;0.20;0.20;;;;;;;;;;5031038;28;20457;-63
2021/07/04 05:09:21;;;;;;;0.20;0.20;;;;;;;;;;5030969;28;20411;-63
2021/07/04 05:11:49;;;;;;;0.30;0.30;;;;;;;;;;5031243;28;20404;-64
2021/07/04 05:14:15;;;;;;;0.30;0.30;;;;;;;;;;5031036;28;20957;-64
2021/07/04 05:16:41;;;;;;;0.20;0.20;;;;;;;;;;5031009;28;20418;-65
2021/07/04 05:19:07;;;;;;;0.20;0.20;;;;;;;;;;5032329;28;20419;-64
2021/07/04 05:21:33;;;;;;;0.30;0.30;;;;;;;;;;5034782;28;20443;-63
2021/07/04 05:24:02;;;;;;;0.20;0.20;;;;;;;;;;5034831;28;20922;-64
2021/07/04 05:26:29;;;;;;;0.20;0.20;;;;;;;;;;5034474;28;20822;-64
2021/07/04 05:28:55;;;;;;;0.20;0.20;;;;;;;;;;5034565;28;20893;-61
2021/07/04 05:31:21;;;;;;;0.20;0.20;;;;;;;;;;5034993;28;20837;-64
2021/07/04 05:33:47;;;;;;;0.20;0.20;;;;;;;;;;5034808;28;20443;-65
2021/07/04 05:36:13;;;;;;;0.20;0.20;;;;;;;;;;5034657;28;20500;-65
2021/07/04 05:38:42;;;;;;;0.20;0.20;;;;;;;;;;5034128;28;20423;-65
2021/07/04 05:41:09;;;;;;;0.20;0.20;;;;;;;;;;5034323;28;20930;-65
2021/07/04 05:43:35;;;;;;;0.30;0.30;;;;;;;;;;5034281;28;20498;-64
2021/07/04 05:46:01;;;;;;;0.20;0.20;;;;;;;;;;5034389;28;20771;-65
2021/07/04 05:48:28;;;;;;;0.30;0.30;;;;;;;;;;5032221;28;20977;-63
2021/07/04 05:50:55;;;;;;;0.20;0.20;;;;;;;;;;5033665;28;20481;-65
2021/07/04 05:53:21;;;;;;;0.20;0.20;;;;;;;;;;5033776;28;20378;-65
2021/07/04 05:55:47;;;;;;;0.20;0.20;;;;;;;;;;5033677;28;20403;-65
2021/07/04 05:58:13;;;;;;;0.20;0.20;;;;;;;;;;5033492;28;20914;-63
2021/07/04 06:00:39;;;;;;;0.20;0.20;;;;;;;;;;5033407;28;20909;-63
2021/07/04 06:03:05;;;;;;;0.20;0.20;;;;;;;;;;5033594;28;20469;-65
2021/07/04 06:05:31;;;;;;;0.20;0.20;;;;;;;;;;5033541;28;20447;-65
2021/07/04 06:07:58;;;;;;;0.20;0.20;;;;;;;;;;5033309;28;20867;-64
2021/07/04 06:10:24;;;;;;;0.20;0.20;;;;;;;;;;5033301;28;20389;-65
2021/07/04 06:12:50;;;;;;;0.20;0.20;;;;;;;;;;5033126;28;20494;-63
2021/07/04 06:15:16;;;;;;;0.20;0.20;;;;;;;;;;5033421;28;20407;-63
2021/07/04 06:17:42;;;;;;;0.20;0.20;;;;;;;;;;5033117;28;20457;-64
2021/07/04 06:20:09;;;;;;;0.20;0.20;;;;;;;;;;5033175;28;20397;-65
2021/07/04 06:22:36;;;;;;;0.20;0.20;;;;;;;;;;5033243;28;20485;-65
2021/07/04 06:25:03;;;;;;;0.20;0.20;;;;;;;;;;5033003;28;20382;-64
2021/07/04 06:27:29;;;;;;;0.20;0.20;;;;;;;;;;5032989;28;20474;-64
2021/07/04 06:29:55;;;;;;;0.20;0.20;;;;;;;;;;5047550;28;20451;-63
2021/07/04 06:32:21;;;;;;;0.30;0.30;;;;;;;;;;5032982;28;20497;-63
2021/07/04 06:34:47;;;;;;;0.20;0.20;;;;;;;;;;5048546;28;20882;-64
2021/07/04 06:37:13;;;;;;;0.20;0.20;;;;;;;;;;5032839;28;20836;-63
2021/07/04 06:39:39;;;;;;;0.20;0.20;;;;;;;;;;5032603;28;20394;-64
2021/07/04 06:42:05;;;;;;;0.20;0.20;;;;;;;;;;5032841;28;20423;-64
2021/07/04 06:44:31;;;;;;;0.20;0.20;;;;;;;;;;5032420;28;20498;-63
2021/07/04 06:46:57;;;;;;;0.20;0.20;;;;;;;;;;5047934;28;20475;-63
2021/07/04 06:49:23;;;;;;;0.20;0.20;;;;;;;;;;5032697;28;20377;-64
2021/07/04 06:51:49;;;;;;;0.20;0.20;;;;;;;;;;5032552;28;20411;-64
2021/07/04 06:54:15;;;;;;;0.20;0.20;;;;;;;;;;5033083;28;20400;-64
2021/07/04 06:56:41;;;;;;;0.20;0.20;;;;;;;;;;5032484;28;20443;-65
2021/07/04 06:59:07;;;;;;;0.30;0.30;;;;;;;;;;5032391;28;20425;-64
2021/07/04 07:01:33;;;;;;;0.20;0.20;;;;;;;;;;5032741;28;20961;-65
2021/07/04 07:03:59;;;;;;;0.20;0.20;;;;;;;;;;5032420;28;20416;-63
2021/07/04 07:06:26;;;;;;;0.20;0.20;;;;;;;;;;5032310;28;20411;-64
2021/07/04 07:08:52;;;;;;;0.20;0.20;;;;;;;;;;5031907;28;20386;-65
2021/07/04 07:11:18;;;;;;;0.20;0.20;;;;;;;;;;5032260;28;20408;-64
2021/07/04 07:13:44;;;;;;;0.20;0.20;;;;;;;;;;5032256;28;20389;-63
2021/07/04 07:16:10;;;;;;;0.20;0.20;;;;;;;;;;5031836;28;20382;-63
2021/07/04 07:18:36;;;;;;;0.20;0.20;;;;;;;;;;5030147;28;20455;-63
2021/07/04 07:21:03;;;;;;;0.20;0.20;;;;;;;;;;5030935;28;20884;-64
2021/07/04 07:23:29;;;;;;;0.20;0.20;;;;;;;;;;5031794;28;20387;-65
2021/07/04 07:25:56;;;;;;;0.20;0.20;;;;;;;;;;5031681;28;20898;-65
2021/07/04 07:28:22;;;;;;;0.20;0.20;;;;;;;;;;5031527;28;20463;-63
2021/07/04 07:30:48;;;;;;;0.20;0.20;;;;;;;;;;5031450;28;20394;-64
2021/07/04 07:33:14;;;;;;;0.20;0.20;;;;;;;;;;5031506;28;20905;-64
2021/07/04 07:35:40;;;;;;;0.20;0.20;;;;;;;;;;5032033;28;20404;-64
2021/07/04 07:38:07;;;;;;;0.20;0.20;;;;;;;;;;5031510;28;20438;-64
2021/07/04 07:40:35;;;;;;;0.20;0.20;;;;;;;;;;5031540;28;20385;-65
2021/07/04 07:43:01;;;;;;;0.20;0.20;;;;;;;;;;5031058;28;20408;-64
2021/07/04 07:45:27;;;;;;;0.20;0.20;;;;;;;;;;5031417;28;20394;-64
2021/07/04 07:47:53;;;;;;;0.20;0.20;;;;;;;;;;5031139;28;20502;-64
2021/07/04 07:50:19;;;;;;;0.20;0.20;;;;;;;;;;5030738;28;20822;-63
2021/07/04 07:52:46;;;;;;;0.20;0.20;;;;;;;;;;5031309;28;20442;-64
2021/07/04 07:55:12;;;;;;;0.20;0.20;;;;;;;;;;5030491;28;20759;-64
2021/07/04 07:57:39;;;;;;;0.20;0.20;;;;;;;;;;5029312;28;20451;-64
2021/07/04 08:00:06;;;;;;;0.20;0.20;;;;;;;;;;5031129;28;20420;-65
2021/07/04 08:02:33;;;;;;;0.20;0.20;;;;;;;;;;5031445;28;20455;-66
2021/07/04 08:04:59;;;;;;;0.20;0.20;;;;;;;;;;5031381;28;20469;-65
2021/07/04 08:07:25;;;;;;;0.20;0.20;;;;;;;;;;5031208;28;20460;-65
2021/07/04 08:09:51;;;;;;;0.20;0.20;;;;;;;;;;5031290;28;20404;-65
2021/07/04 08:12:17;;;;;;;0.20;0.20;;;;;;;;;;5031314;28;20410;-64
2021/07/04 08:14:43;;;;;;;0.20;0.20;;;;;;;;;;5031463;28;20499;-65
2021/07/04 08:17:09;;;;;;;0.20;0.20;;;;;;;;;;5031169;28;21121;-65
2021/07/04 08:19:36;;;;;;;0.20;0.20;;;;;;;;;;5030874;28;20412;-64
2021/07/04 08:22:02;;;;;;;0.20;0.20;;;;;;;;;;5030857;28;20875;-65
2021/07/04 08:24:28;;;;;;;0.20;0.20;;;;;;;;;;5031264;28;20414;-63
2021/07/04 08:26:54;;;;;;;0.20;0.20;;;;;;;;;;5031189;28;20511;-65
2021/07/04 08:29:21;;;;;;;0.20;0.20;;;;;;;;;;5030969;28;20883;-64
2021/07/04 08:31:47;;;;;;;0.20;0.20;;;;;;;;;;5031330;28;20404;-64
2021/07/04 08:34:13;;;;;;;0.20;0.20;;;;;;;;;;5031058;28;20442;-63
2021/07/04 08:36:39;;;;;;;0.20;0.20;;;;;;;;;;5031270;28;20453;-63
2021/07/04 08:39:06;;;;;;;0.20;0.20;;;;;;;;;;5030892;28;20408;-61
2021/07/04 08:41:32;;;;;;;0.20;0.20;;;;;;;;;;5031020;28;20906;-65
2021/07/04 08:44:04;;;;;;;0.20;0.20;;;;;;;;;;5031009;28;20411;-63
2021/07/04 08:46:30;;;;;;;0.20;0.20;;;;;;;;;;5029795;28;20412;-64
2021/07/04 08:48:56;;;;;;;0.20;0.20;;;;;;;;;;5030781;28;20893;-63
2021/07/04 08:51:22;;;;;;;0.20;0.20;;;;;;;;;;5029997;28;20408;-65
2021/07/04 08:53:48;;;;;;;0.20;0.20;;;;;;;;;;5031545;28;20437;-65
2021/07/04 08:56:14;;;;;;;0.20;0.20;;;;;;;;;;5034757;28;20417;-63
2021/07/04 08:58:40;;;;;;;0.20;0.20;;;;;;;;;;5034498;28;20435;-62
2021/07/04 09:01:09;;;;;;;0.20;0.20;;;;;;;;;;5034718;28;20435;-64
2021/07/04 09:03:35;;;;;;;0.20;0.20;;;;;;;;;;5034721;28;20432;-64
2021/07/04 09:06:01;;;;;;;0.20;0.20;;;;;;;;;;5034767;28;20457;-64
2021/07/04 09:08:27;;;;;;;0.20;0.20;;;;;;;;;;5034271;28;20537;-65
2021/07/04 09:11:29;;;;;;;0.20;0.20;;;;;;;;;;5034560;28;20908;-63
2021/07/04 09:13:55;;;;;;;0.20;0.20;;;;;;;;;;4973347;28;20426;-63
2021/07/04 09:16:23;;;;;;;0.20;0.20;;;;;;;;;;5022177;28;20438;-65
2021/07/04 09:19:08;;;;;;;0.20;0.20;;;;;;;;;;5034491;28;20450;-65
2021/07/04 09:21:34;;;;;;;0.20;0.20;;;;;;;;;;5034426;28;20411;-64
2021/07/04 09:24:00;;;;;;;0.20;0.20;;;;;;;;;;5034378;28;20927;-65
2021/07/04 09:26:38;;;;;;;0.20;0.20;;;;;;;;;;5033769;28;20389;-63
2021/07/04 09:29:05;;;;;;;0.20;0.20;;;;;;;;;;5033747;28;20871;-63
2021/07/04 09:31:31;;;;;;;0.20;0.20;;;;;;;;;;5032871;28;20465;-65
2021/07/04 09:34:05;;;;;;;0.20;0.20;;;;;;;;;;5034154;28;20435;-63
2021/07/04 09:36:31;;;;;;;0.20;0.20;;;;;;;;;;5034064;28;20550;-64
2021/07/04 09:38:57;;;;;;;0.20;0.20;;;;;;;;;;5033794;28;20495;-65
2021/07/04 09:41:23;;;;;;;0.20;0.20;;;;;;;;;;5033958;28;20387;-64
2021/07/04 09:43:49;;;;;;;0.20;0.20;;;;;;;;;;5033895;28;20382;-65
2021/07/04 09:46:17;;;;;;;0.20;0.20;;;;;;;;;;5033914;28;20409;-63
2021/07/04 09:48:43;;;;;;;0.20;0.20;;;;;;;;;;5033645;28;20460;-65
2021/07/04 09:51:17;;;;;;;0.20;0.20;;;;;;;;;;5033729;28;20551;-64
2021/07/04 09:53:45;;;;;;;0.20;0.20;;;;;;;;;;5033822;28;20461;-65
2021/07/04 09:56:11;;;;;;;0.20;0.20;;;;;;;;;;5033755;28;20393;-64
2021/07/04 09:58:38;;;;;;;0.20;0.20;;;;;;;;;;5033250;28;20494;-64
2021/07/04 10:01:04;;;;;;;0.20;0.20;;;;;;;;;;5033720;28;20889;-64
2021/07/04 10:03:30;;;;;;;0.20;0.20;;;;;;;;;;5033637;28;20430;-65
2021/07/04 10:06:00;;;;;;;0.20;0.20;;;;;;;;;;5033330;28;20977;-64
2021/07/04 10:08:39;;;;;;;0.20;0.20;;;;;;;;;;5033370;28;20834;-62
2021/07/04 10:11:15;;;;;;;0.20;0.20;;;;;;;;;;5033467;28;20503;-65
2021/07/04 10:13:46;;;;;;;0.20;0.20;;;;;;;;;;5033638;28;20399;-65
2021/07/04 10:16:13;;;;;;;0.20;0.20;;;;;;;;;;5033905;28;20757;-65
2021/07/04 10:18:39;;;;;;;0.20;0.20;;;;;;;;;;5066411;22;20478;-62
2021/07/04 10:21:06;;;;;;;0.20;0.20;;;;;;;;;;5053478;28;20444;-64
2021/07/04 10:23:32;;;;;;;0.20;0.20;;;;;;;;;;5053338;28;20405;-62
2021/07/04 10:25:59;;;;;;;0.20;0.20;;;;;;;;;;5053352;28;20828;-62
2021/07/04 10:28:33;;;;;;;0.20;0.20;;;;;;;;;;5052883;28;20465;-64
2021/07/04 10:31:01;;;;;;;0.20;0.20;;;;;;;;;;5052911;28;20425;-62
2021/07/04 10:33:32;;;;;;;0.20;0.20;;;;;;;;;;5053047;28;20385;-62
2021/07/04 10:35:58;;;;;;;0.20;0.20;;;;;;;;;;5053048;28;20417;-61
2021/07/04 10:38:25;;;;;;;0.20;0.20;;;;;;;;;;5052791;28;20935;-64
2021/07/04 10:41:04;;;;;;;0.20;0.20;;;;;;;;;;5052968;28;20906;-64
2021/07/04 10:43:50;;;;;;;0.30;0.30;;;;;;;;;;5052854;28;20503;-63
2021/07/04 10:46:16;;;;;;;0.20;0.20;;;;;;;;;;5052826;28;20433;-62
2021/07/04 10:48:58;;;;;;;0.20;0.20;;;;;;;;;;5052426;28;20501;-63
2021/07/04 10:51:25;;;;;;;0.20;0.20;;;;;;;;;;5052723;28;20460;-62
2021/07/04 10:53:52;;;;;;;0.20;0.20;;;;;;;;;;5052580;28;20432;-62
2021/07/04 10:56:36;;;;;;;0.20;0.20;;;;;;;;;;5052592;28;20493;-62
2021/07/04 10:59:05;;;;;;;0.20;0.20;;;;;;;;;;5050965;28;20424;-64
2021/07/04 11:01:47;;;;;;;0.20;0.20;;;;;;;;;;5052532;28;20449;-62
2021/07/04 11:04:28;;;;;;;0.20;0.20;;;;;;;;;;5052425;28;20456;-64
2021/07/04 11:06:55;;;;;;;0.20;0.20;;;;;;;;;;5052420;28;20460;-64
2021/07/04 11:09:21;;;;;;;0.20;0.20;;;;;;;;;;5051138;28;20443;-64
2021/07/04 11:11:47;;;;;;;0.20;0.20;;;;;;;;;;5052147;28;20415;-64
2021/07/04 11:14:13;;;;;;;0.20;0.20;;;;;;;;;;5052278;28;20414;-64
2021/07/04 11:16:59;;;;;;;0.20;0.20;;;;;;;;;;5051990;28;20414;-64
2021/07/04 11:19:25;;;;;;;0.20;0.20;;;;;;;;;;5052172;28;20406;-64
2021/07/04 11:21:54;;;;;;;0.20;0.20;;;;;;;;;;5052355;28;20374;-63
2021/07/04 11:24:22;;;;;;;0.20;0.20;;;;;;;;;;5052152;28;20977;-63
2021/07/04 11:27:14;;;;;;;0.20;0.20;;;;;;;;;;5052000;28;20468;-63
2021/07/04 11:30:00;;;;;;;0.20;0.20;;;;;;;;;;5049812;28;20468;-63
2021/07/04 11:32:26;;;;;;;0.20;0.20;;;;;;;;;;5051759;28;20442;-64
2021/07/04 11:34:52;;;;;;;0.20;0.20;;;;;;;;;;5051651;28;20843;-62
2021/07/04 11:37:18;;;;;;;0.20;0.20;;;;;;;;;;5051520;28;20451;-63
2021/07/04 11:39:55;;;;;;;0.20;0.20;;;;;;;;;;5051672;28;20384;-63
2021/07/04 11:42:25;;;;;;;0.20;0.20;;;;;;;;;;5051679;28;20406;-63
2021/07/04 11:44:51;;;;;;;0.20;0.20;;;;;;;;;;5051634;28;20404;-63
2021/07/04 11:47:17;;;;;;;0.20;0.20;;;;;;;;;;5051382;28;20782;-63
2021/07/04 11:49:43;;;;;;;0.20;0.20;;;;;;;;;;5051603;28;20460;-63
2021/07/04 11:52:10;;;;;;;0.20;0.20;;;;;;;;;;5052199;28;20496;-63
2021/07/04 11:54:36;;;;;;;0.20;0.20;;;;;;;;;;5051750;28;20432;-63
2021/07/04 11:59:54;;;;;;;0.20;0.20;;;;;;;;;;5051501;28;20377;-63
2021/07/04 12:02:20;;;;;;;0.20;0.20;;;;;;;;;;5051472;28;20406;-63
2021/07/04 12:04:46;;;;;;;0.20;0.20;;;;;;;;;;5051435;28;20434;-63
2021/07/04 12:07:13;;;;;;;0.20;0.20;;;;;;;;;;5049513;28;20462;-63
2021/07/04 12:09:49;;;;;;;0.20;0.20;;;;;;;;;;5051237;28;20873;-64
2021/07/04 12:12:18;;;;;;;0.20;0.20;;;;;;;;;;5051352;28;20514;-63
2021/07/04 12:14:44;;;;;;;0.20;0.20;;;;;;;;;;5051438;28;20415;-63
2021/07/04 12:17:15;;;;;;;0.20;0.20;;;;;;;;;;5051113;28;20430;-63
2021/07/04 12:19:42;;;;;;;0.20;0.20;;;;;;;;;;5051169;28;20505;-63
2021/07/04 12:22:10;;;;;;;0.20;0.20;;;;;;;;;;5051337;28;20775;-63
2021/07/04 12:24:38;;;;;;;0.20;0.20;;;;;;;;;;5051302;28;20543;-63
2021/07/04 12:27:05;;;;;;;0.20;0.20;;;;;;;;;;5051524;28;20854;-63
2021/07/04 12:29:31;;;;;;;0.20;0.20;;;;;;;;;;5053235;28;20486;-63
2021/07/04 12:32:01;;;;;;;0.20;0.20;;;;;;;;;;5053977;28;20398;-63
2021/07/04 12:34:28;;;;;;;0.20;0.20;;;;;;;;;;5054581;28;20415;-63
2021/07/04 12:36:54;;;;;;;0.20;0.20;;;;;;;;;;5055295;28;20437;-63
2021/07/04 12:39:20;;;;;;;0.20;0.20;;;;;;;;;;5054597;28;20412;-63
2021/07/04 12:41:46;;;;;;;0.20;0.20;;;;;;;;;;5055314;28;20389;-63
2021/07/04 12:44:13;;;;;;;0.20;0.20;;;;;;;;;;5053830;28;20412;-63
2021/07/04 12:46:40;;;;;;;0.20;0.20;;;;;;;;;;5055104;28;20930;-63
2021/07/04 12:49:12;;;;;;;0.20;0.20;;;;;;;;;;5054725;28;20583;-63
2021/07/04 12:51:38;;;;;;;0.20;0.20;;;;;;;;;;5054993;28;20383;-63
2021/07/04 12:54:17;;;;;;;0.20;0.20;;;;;;;;;;5054950;28;20412;-63
2021/07/04 12:56:45;;;;;;;0.20;0.20;;;;;;;;;;5054614;28;20411;-62
2021/07/04 12:59:11;;;;;;;0.20;0.20;;;;;;;;;;5054447;28;20904;-62
2021/07/04 13:01:38;;;;;;;0.20;0.20;;;;;;;;;;5055377;28;20928;-62
2021/07/04 13:04:04;;;;;;;0.20;0.20;;;;;;;;;;5056643;28;20896;-63
2021/07/04 13:06:45;;;;;;;0.20;0.20;;;;;;;;;;5055006;28;20462;-63
2021/07/04 13:09:13;;;;;;;0.20;0.20;;;;;;;;;;5054613;28;20517;-63
2021/07/04 13:11:39;;;;;;;0.20;0.20;;;;;;;;;;5054459;28;20397;-63
2021/07/04 13:14:12;;;;;;;0.20;0.20;;;;;;;;;;5054750;28;20413;-63
2021/07/04 13:16:55;;;;;;;0.20;0.20;;;;;;;;;;5054722;28;20397;-63
2021/07/04 13:19:25;;;;;;;0.20;0.20;;;;;;;;;;5054496;28;20410;-63
2021/07/04 13:21:51;;;;;;;0.20;0.20;;;;;;;;;;5056461;28;20444;-63
2021/07/04 13:24:19;;;;;;;0.20;0.20;;;;;;;;;;5055394;28;20404;-63
2021/07/04 13:26:49;;;;;;;0.20;0.20;;;;;;;;;;5055508;28;20925;-63
2021/07/04 13:29:19;;;;;;;0.20;0.20;;;;;;;;;;5055082;28;20465;-63
2021/07/04 13:32:04;;;;;;;0.20;0.20;;;;;;;;;;5055458;28;20429;-63
2021/07/04 13:34:30;;;;;;;0.20;0.20;;;;;;;;;;5054806;28;20937;-63
2021/07/04 13:36:56;;;;;;;0.20;0.20;;;;;;;;;;5054724;28;20406;-63
2021/07/04 13:39:23;;;;;;;0.20;0.20;;;;;;;;;;5053777;28;20420;-64
2021/07/04 13:41:49;;;;;;;0.20;0.20;;;;;;;;;;5055456;28;20434;-62
2021/07/04 13:44:15;;;;;;;0.20;0.20;;;;;;;;;;5052695;28;20511;-63
2021/07/04 13:46:41;;;;;;;0.20;0.20;;;;;;;;;;5054177;28;20416;-64
2021/07/04 13:49:07;;;;;;;0.20;0.20;;;;;;;;;;5053934;28;20449;-64
2021/07/04 13:51:33;;;;;;;0.20;0.20;;;;;;;;;;5054367;28;20404;-63
2021/07/04 13:53:59;;;;;;;0.20;0.20;;;;;;;;;;5054121;28;20381;-64
2021/07/04 13:56:25;;;;;;;0.20;0.20;;;;;;;;;;5052975;28;20914;-62
2021/07/04 13:58:51;;;;;;;0.20;0.20;;;;;;;;;;5053821;28;20430;-63
2021/07/04 14:01:17;;;;;;;0.20;0.20;;;;;;;;;;5053957;28;20385;-63
2021/07/04 14:03:43;;;;;;;0.20;0.20;;;;;;;;;;5054826;28;20406;-63
2021/07/04 14:06:09;;;;;;;0.20;0.20;;;;;;;;;;5054492;28;20415;-64
2021/07/04 14:08:35;;;;;;;0.20;0.20;;;;;;;;;;5053781;28;20485;-64
2021/07/04 14:11:03;;;;;;;0.20;0.20;;;;;;;;;;5054294;28;20474;-63
2021/07/04 14:13:28;;;;;;;0.20;0.20;;;;;;;;;;5054110;28;20417;-64
2021/07/04 14:15:54;;;;;;;0.20;0.20;;;;;;;;;;5052681;28;20377;-63
2021/07/04 14:18:20;;;;;;;0.20;0.20;;;;;;;;;;5053604;28;20458;-64
2021/07/04 14:20:47;;;;;;;0.20;0.20;;;;;;;;;;5053916;28;20448;-63
2021/07/04 14:23:13;;;;;;;0.20;0.20;;;;;;;;;;5054315;28;20416;-64
2021/07/04 14:25:39;;;;;;;0.20;0.20;;;;;;;;;;5055369;28;20424;-64
2021/07/04 14:28:06;;;;;;;0.20;0.20;;;;;;;;;;5053788;28;20454;-64
2021/07/04 14:30:34;;;;;;;0.20;0.20;;;;;;;;;;5053550;28;20785;-64
2021/07/04 14:33:00;;;;;;;0.20;0.20;;;;;;;;;;5051890;28;20414;-64
2021/07/04 14:35:27;;;;;;;0.20;0.20;;;;;;;;;;5052604;28;20381;-64
2021/07/04 14:37:53;;;;;;;0.20;0.20;;;;;;;;;;5051431;28;20938;-62
2021/07/04 14:40:20;;;;;;;0.20;0.20;;;;;;;;;;5051583;28;20437;-62
2021/07/04 14:42:48;;;;;;;0.20;0.20;;;;;;;;;;5052542;28;20422;-63
2021/07/04 14:45:14;;;;;;;0.20;0.20;;;;;;;;;;5053448;28;20422;-63
2021/07/04 14:47:41;;;;;;;0.20;0.20;;;;;;;;;;5052847;28;20577;-63